Assaria, Kansas
Current Conditions -  °F | °C
As of 9:53 PM on Wednesday 28 Jan 2015 (Local Time) from KSLN Reporting Station
Clear Clear  
Wind Chill: 14°   Ceiling: Unl
Heat Index: 14°   Visibility: 10mi
Dew Point: -1°   Wind: 17mph
Humidity: 37%   Direction: 320°NW
Pressure: 29.95"   Gusts: NA
Location:  38.68°N, 97.6°W
Report Text: KSLN 290353Z 32015KT 10SM CLR 14/M01 A2995 RMK AO2 PK WND 31030/0302 SLP138 T01391006
Loading
Personal Weather Stations






























Interactive Weather Map New forecast layout! Learn more

10-Day Weather Forecast

Advertisements
Track Severe Weather on mobile